createdAt,value
2018-05-07T00:00:06.675Z,25.5
2018-05-07T00:00:56.723Z,25.5
2018-05-07T00:01:47.027Z,25.5
2018-05-07T00:02:36.875Z,25.5
2018-05-07T00:03:26.683Z,25.5
2018-05-07T00:04:16.717Z,25.5
2018-05-07T00:05:07.323Z,25.5
2018-05-07T00:05:58.907Z,25.5
2018-05-07T00:06:47.414Z,25.5
2018-05-07T00:07:37.336Z,25.5
2018-05-07T00:08:26.705Z,25.5
2018-05-07T00:09:18.068Z,25.5
2018-05-07T00:10:07.171Z,25.6
2018-05-07T00:10:57.793Z,25.6
2018-05-07T00:11:48.740Z,25.5
2018-05-07T00:12:37.384Z,25.5
2018-05-07T00:13:27.708Z,25.6
2018-05-07T00:14:17.518Z,25.6
2018-05-07T00:15:08.055Z,25.6
2018-05-07T00:15:57.608Z,25.6
2018-05-07T00:16:47.909Z,25.6
2018-05-07T00:17:37.679Z,25.6
2018-05-07T00:18:28.068Z,25.6
2018-05-07T00:19:17.827Z,25.6
2018-05-07T00:20:08.170Z,25.6
2018-05-07T00:20:57.659Z,25.6
2018-05-07T00:21:47.753Z,25.6
2018-05-07T00:22:37.844Z,25.6
2018-05-07T00:23:28.744Z,25.6
2018-05-07T00:24:18.525Z,25.6
2018-05-07T00:25:08.303Z,25.6
2018-05-07T00:25:58.367Z,25.6
2018-05-07T00:26:48.493Z,25.6
2018-05-07T00:27:38.874Z,25.6
2018-05-07T00:28:29.206Z,25.6
2018-05-07T00:29:19.167Z,25.6
2018-05-07T00:30:08.138Z,25.6
2018-05-07T00:30:58.800Z,25.6
2018-05-07T00:31:49.198Z,25.6
2018-05-07T00:32:39.176Z,25.6
2018-05-07T00:33:28.963Z,25.6
2018-05-07T00:34:18.506Z,25.6
2018-05-07T00:35:09.547Z,25.6
2018-05-07T00:35:59.668Z,25.6
2018-05-07T00:36:48.933Z,25.6
2018-05-07T00:37:39.818Z,25.6
2018-05-07T00:38:29.406Z,25.6
2018-05-07T00:39:19.936Z,25.6
2018-05-07T00:40:09.180Z,25.6
2018-05-07T00:40:59.786Z,25.6
2018-05-07T00:41:49.884Z,25.6
2018-05-07T00:42:39.678Z,25.6
2018-05-07T00:43:29.495Z,25.6
2018-05-07T00:44:20.336Z,25.6
2018-05-07T00:45:09.853Z,25.6
2018-05-07T00:45:59.348Z,25.6
2018-05-07T00:46:50.548Z,25.6
2018-05-07T00:47:40.589Z,25.6
2018-05-07T00:48:30.067Z,25.6
2018-05-07T00:49:20.661Z,25.6
2018-05-07T00:50:10.745Z,25.6
2018-05-07T00:51:00.584Z,25.6
2018-05-07T00:51:50.341Z,25.6
2018-05-07T00:52:40.970Z,25.6
2018-05-07T00:53:31.101Z,25.6
2018-05-07T00:54:20.803Z,25.6
2018-05-07T00:55:10.322Z,25.6
2018-05-07T00:56:00.670Z,25.6
2018-05-07T00:56:51.296Z,25.6
2018-05-07T00:57:41.096Z,25.6
2018-05-07T00:58:31.418Z,25.6
2018-05-07T00:59:20.624Z,25.6
2018-05-07T01:00:10.414Z,25.6
2018-05-07T01:01:01.367Z,25.6
2018-05-07T01:01:50.832Z,25.6
2018-05-07T01:02:41.744Z,25.6
2018-05-07T01:03:31.536Z,25.6
2018-05-07T01:04:21.590Z,25.6
2018-05-07T01:05:11.100Z,25.7
2018-05-07T01:06:01.464Z,25.7
2018-05-07T01:06:51.276Z,25.6
2018-05-07T01:07:41.544Z,25.6
2018-05-07T01:08:32.207Z,25.6
2018-05-07T01:09:21.966Z,25.6
2018-05-07T01:10:11.779Z,25.7
2018-05-07T01:11:01.819Z,25.6
2018-05-07T01:11:51.622Z,25.7
2018-05-07T01:12:42.788Z,25.6
2018-05-07T01:13:32.568Z,25.7
2018-05-07T01:14:22.373Z,25.6
2018-05-07T01:15:12.428Z,25.6
2018-05-07T01:16:02.736Z,25.6
2018-05-07T01:16:52.563Z,25.6
2018-05-07T01:17:42.426Z,25.6
2018-05-07T01:18:32.390Z,25.7
2018-05-07T01:19:22.477Z,25.7
2018-05-07T01:20:12.510Z,25.6
2018-05-07T01:21:03.118Z,25.7
2018-05-07T01:21:52.704Z,25.7
2018-05-07T01:22:43.260Z,25.6
2018-05-07T01:23:33.317Z,25.7
2018-05-07T01:24:23.222Z,25.6
2018-05-07T01:25:13.214Z,25.6
2018-05-07T01:26:03.272Z,25.6
2018-05-07T01:26:52.773Z,25.6
2018-05-07T01:27:43.452Z,25.7
2018-05-07T01:28:33.188Z,25.7
2018-05-07T01:29:23.245Z,25.7
2018-05-07T01:30:13.608Z,25.7
2018-05-07T01:31:03.378Z,25.7
2018-05-07T01:31:52.900Z,25.7
2018-05-07T01:32:43.796Z,25.6
2018-05-07T01:33:33.606Z,25.7
2018-05-07T01:34:23.623Z,25.7
2018-05-07T01:35:13.995Z,25.7
2018-05-07T01:36:04.063Z,25.7
2018-05-07T01:36:54.131Z,25.7
2018-05-07T01:37:43.872Z,25.7
2018-05-07T01:38:34.277Z,25.7
2018-05-07T01:39:24.146Z,25.7
2018-05-07T01:40:14.651Z,25.7
2018-05-07T01:41:04.692Z,25.7
2018-05-07T01:41:54.489Z,25.7
2018-05-07T01:42:44.862Z,25.7
2018-05-07T01:43:34.385Z,25.7
2018-05-07T01:44:24.458Z,25.7
2018-05-07T01:45:15.076Z,25.7
2018-05-07T01:46:05.061Z,25.7
2018-05-07T01:46:54.858Z,25.7
2018-05-07T01:47:44.618Z,25.7
2018-05-07T01:48:35.333Z,25.7
2018-05-07T01:49:25.071Z,25.7
2018-05-07T01:50:15.425Z,25.7
2018-05-07T01:51:05.562Z,25.7
2018-05-07T01:51:55.591Z,25.7
2018-05-07T01:52:45.606Z,25.7
2018-05-07T01:53:35.424Z,25.7
2018-05-07T01:54:25.829Z,25.7
2018-05-07T01:55:14.983Z,25.7
2018-05-07T01:56:05.298Z,25.7
2018-05-07T01:56:55.678Z,25.7
2018-05-07T01:57:46.020Z,25.7
2018-05-07T01:58:35.771Z,25.7
2018-05-07T01:59:25.840Z,25.7
2018-05-07T02:00:15.600Z,25.7
2018-05-07T02:01:05.965Z,25.8
2018-05-07T02:01:56.042Z,25.7
2018-05-07T02:02:46.111Z,25.7
2018-05-07T02:03:35.623Z,25.7
2018-05-07T02:04:26.244Z,25.7
2018-05-07T07:27:04.366Z,24.7
2018-05-07T07:27:54.789Z,24.7
2018-05-07T07:28:44.774Z,24.7
2018-05-07T07:29:34.807Z,24.7
2018-05-07T07:30:24.883Z,24.6
2018-05-07T07:31:14.678Z,24.7
2018-05-07T07:32:04.972Z,24.6
2018-05-07T07:32:54.813Z,24.6
2018-05-07T07:33:44.800Z,24.7
2018-05-07T07:34:34.367Z,24.6
2018-05-07T07:35:25.417Z,24.6
2018-05-07T07:36:15.318Z,24.6
2018-05-07T07:37:05.398Z,24.6
2018-05-07T07:37:55.429Z,24.6
2018-05-07T07:38:44.449Z,24.6
2018-05-07T07:39:36.161Z,24.6
2018-05-07T07:40:25.653Z,24.6
2018-05-07T07:41:14.879Z,24.6
2018-05-07T07:42:05.296Z,24.6
2018-05-07T07:42:55.307Z,24.6
2018-05-07T07:43:45.692Z,24.6
2018-05-07T07:44:36.004Z,24.6
2018-05-07T07:45:25.229Z,24.6
2018-05-07T07:46:16.083Z,24.6
2018-05-07T07:47:07.142Z,24.6
2018-05-07T07:47:56.213Z,24.6
2018-05-07T07:48:46.035Z,24.6
2018-05-07T07:49:36.394Z,24.6
2018-05-07T07:50:25.601Z,24.6
2018-05-07T07:51:15.934Z,24.6
2018-05-07T07:52:05.921Z,24.6
2018-05-07T07:52:56.624Z,24.6
2018-05-07T07:53:46.867Z,24.6
2018-05-07T07:54:36.211Z,24.6
2018-05-07T07:55:25.679Z,24.6
2018-05-07T07:56:16.886Z,24.6
2018-05-07T07:57:06.136Z,24.6
2018-05-07T07:57:56.447Z,24.6
2018-05-07T07:58:45.702Z,24.6
2018-05-07T07:59:36.629Z,24.6
2018-05-07T08:00:26.098Z,24.6
2018-05-07T08:01:17.046Z,24.6
2018-05-07T08:02:07.424Z,24.6
2018-05-07T08:02:56.571Z,24.6
2018-05-07T08:03:46.638Z,24.6
2018-05-07T08:04:36.744Z,24.6
2018-05-07T08:05:27.149Z,24.6
2018-05-07T08:06:16.676Z,24.6
2018-05-07T08:07:06.928Z,24.6
2018-05-07T08:07:56.693Z,24.6
2018-05-07T08:08:47.036Z,24.6
2018-05-07T08:09:37.976Z,24.6
2018-05-07T08:10:27.756Z,24.6
2018-05-07T08:11:17.518Z,24.6
2018-05-07T08:12:07.561Z,24.6
2018-05-07T08:12:57.732Z,24.6
2018-05-07T08:13:47.778Z,24.6
2018-05-07T08:14:37.475Z,24.6
2018-05-07T08:15:27.792Z,24.6
2018-05-07T08:16:18.477Z,24.6
2018-05-07T08:17:08.582Z,24.6
2018-05-07T08:17:58.589Z,24.8
2018-05-07T08:18:47.799Z,28.4
2018-05-07T08:19:38.648Z,29.6
2018-05-07T08:20:28.515Z,31.8
2018-05-07T08:21:18.330Z,32.4
2018-05-07T08:22:08.393Z,32.6
2018-05-07T08:22:58.735Z,31.7
2018-05-07T08:23:49.044Z,30
2018-05-07T08:24:38.997Z,28.8
2018-05-07T08:25:28.876Z,27.3
2018-05-07T08:26:18.386Z,27.9
2018-05-07T08:27:08.726Z,28.5
2018-05-07T08:27:59.377Z,29.3
2018-05-07T08:28:49.164Z,29.8
2018-05-07T08:29:39.239Z,30.1
2018-05-07T08:30:30.043Z,30.1
2018-05-07T08:31:19.045Z,30
2018-05-07T08:32:09.396Z,29.9
2018-05-07T08:32:59.541Z,29.9
2018-05-07T08:33:49.559Z,30.1
2018-05-07T08:34:39.401Z,30.2
2018-05-07T08:35:29.951Z,30.3
2018-05-07T08:36:19.772Z,30.3
2018-05-07T08:37:09.765Z,30.4
2018-05-07T08:38:00.351Z,30.4
2018-05-07T08:38:50.200Z,30.6
2018-05-07T08:39:40.317Z,30.6
2018-05-07T08:40:29.493Z,30.8
2018-05-07T08:41:20.386Z,30.9
2018-05-07T08:42:09.894Z,31
2018-05-07T08:43:00.514Z,31.1
2018-05-07T08:43:50.602Z,31.3
2018-05-07T08:44:40.361Z,31.5
2018-05-07T08:45:30.163Z,31.7
2018-05-07T08:46:20.195Z,31.9
2018-05-07T08:47:10.919Z,32.1
2018-05-07T08:48:00.930Z,32.4
2018-05-07T08:48:50.123Z,32.5
2018-05-07T08:49:40.852Z,32.6
2018-05-07T08:50:30.591Z,32.7
2018-05-07T08:51:21.138Z,32.8
2018-05-07T08:52:10.945Z,32.9
2018-05-07T08:53:01.741Z,33
2018-05-07T08:53:51.091Z,33.1
2018-05-07T08:54:41.447Z,33.2
2018-05-07T08:55:31.497Z,33.3
2018-05-07T08:56:21.566Z,33.3
2018-05-07T08:57:11.123Z,33.4
2018-05-07T08:58:01.137Z,33.5
2018-05-07T08:58:51.203Z,33.6
2018-05-07T08:59:41.348Z,33.7
2018-05-07T09:00:30.762Z,33.8
2018-05-07T09:01:21.965Z,33.9
2018-05-07T09:02:12.757Z,33.9
2018-05-07T09:03:01.251Z,34
2018-05-07T09:03:51.675Z,34.1
2018-05-07T09:04:41.964Z,34.3
2018-05-07T09:05:32.295Z,34.3
2018-05-07T09:06:20.643Z,34.4
2018-05-07T09:07:11.852Z,34.5
2018-05-07T09:08:02.862Z,34.6
2018-05-07T09:08:52.251Z,34.7
2018-05-07T09:09:42.599Z,34.8
2018-05-07T09:10:32.392Z,34.8
2018-05-07T09:11:22.746Z,34.9
2018-05-07T09:12:12.557Z,35
2018-05-07T09:13:02.356Z,35
2018-05-07T09:13:52.119Z,35.1
2018-05-07T09:14:41.700Z,35.2
2018-05-07T09:15:31.974Z,35.3
2018-05-07T09:16:22.671Z,35.3
2018-05-07T09:17:12.660Z,35.4
2018-05-07T09:18:03.275Z,35.5
2018-05-07T09:18:53.063Z,35.6
2018-05-07T09:19:43.127Z,35.6
2018-05-07T09:20:32.676Z,35.8
2018-05-07T09:21:23.274Z,35.8
2018-05-07T09:22:13.054Z,35.9
2018-05-07T09:23:03.100Z,36
2018-05-07T09:23:53.279Z,36.1
2018-05-07T09:24:43.959Z,36.1
2018-05-07T09:25:33.312Z,36.2
2018-05-07T09:26:23.141Z,36.3
2018-05-07T09:27:13.474Z,36.4
2018-05-07T09:28:02.663Z,36.4
2018-05-07T09:28:54.223Z,36.5
2018-05-07T09:29:44.202Z,36.6
2018-05-07T09:30:33.699Z,36.7
2018-05-07T09:31:24.312Z,36.8
2018-05-07T09:32:13.563Z,36.8
2018-05-07T09:33:04.464Z,36.9
2018-05-07T09:33:53.701Z,37
2018-05-07T09:34:44.598Z,37.1
2018-05-07T09:35:34.629Z,37.2
2018-05-07T09:36:24.683Z,37.2
2018-05-07T09:37:14.508Z,37.3
2018-05-07T09:38:03.987Z,37.4
2018-05-07T09:38:54.922Z,37.4
2018-05-07T09:39:44.977Z,37.5
2018-05-07T09:40:35.033Z,37.6
2018-05-07T09:41:25.124Z,37.7
2018-05-07T09:42:14.885Z,37.7
2018-05-07T09:43:05.592Z,37.8
2018-05-07T09:43:55.302Z,37.8
2018-05-07T09:44:45.095Z,37.9
2018-05-07T09:45:34.844Z,37.9
2018-05-07T09:46:25.206Z,38.1
2018-05-07T09:47:15.559Z,38.1
2018-05-07T09:48:05.348Z,38.2
2018-05-07T09:48:55.821Z,38.3
2018-05-07T09:49:45.791Z,38.3
2018-05-07T09:50:34.999Z,38.4
2018-05-07T09:51:25.887Z,38.4
2018-05-07T09:52:15.948Z,38.5
2018-05-07T09:53:06.017Z,38.6
2018-05-07T09:53:55.803Z,38.6
2018-05-07T09:54:45.586Z,38.7
2018-05-07T09:55:35.722Z,38.8
2018-05-07T09:56:26.281Z,38.8
2018-05-07T09:57:16.327Z,38.8
2018-05-07T09:58:06.434Z,38.9
2018-05-07T09:58:56.302Z,38.9
2018-05-07T09:59:46.515Z,38.9
2018-05-07T10:00:35.852Z,39
2018-05-07T10:01:26.378Z,39
2018-05-07T10:02:16.478Z,39
2018-05-07T10:03:06.820Z,39.1
2018-05-07T10:03:56.598Z,39.1
2018-05-07T10:04:46.666Z,39.1
2018-05-07T10:05:36.495Z,39
2018-05-07T10:06:26.879Z,39
2018-05-07T10:07:17.143Z,39
2018-05-07T10:08:06.342Z,39
2018-05-07T10:08:57.008Z,39
2018-05-07T10:09:47.335Z,38.8
2018-05-07T10:10:36.840Z,38.6
2018-05-07T10:11:26.902Z,38.6
2018-05-07T10:12:17.515Z,38.5
2018-05-07T10:13:07.017Z,38.1
2018-05-07T10:13:57.117Z,37.9
2018-05-07T10:14:47.706Z,37.8
2018-05-07T10:15:37.850Z,37.7
2018-05-07T10:16:27.587Z,37.6
2018-05-07T10:17:17.640Z,37.6
2018-05-07T10:18:07.707Z,37.6
2018-05-07T10:18:58.060Z,37.5
2018-05-07T10:19:47.361Z,37.5
2018-05-07T10:20:37.923Z,37.5
2018-05-07T10:21:28.258Z,37.5
2018-05-07T10:22:17.761Z,37.5
2018-05-07T10:23:07.912Z,37.5
2018-05-07T10:23:57.217Z,37.6
2018-05-07T10:24:47.744Z,37.6
2018-05-07T10:25:37.512Z,37.6
2018-05-07T10:26:28.138Z,37.7
2018-05-07T10:27:17.904Z,37.7
2018-05-07T10:28:06.346Z,37.7
2018-05-07T10:28:58.178Z,37.7
2018-05-07T10:29:47.898Z,37.7
2018-05-07T10:30:38.471Z,37.7
2018-05-07T10:31:28.548Z,37.8
2018-05-07T10:32:18.574Z,37.8
2018-05-07T10:33:08.926Z,37.9
2018-05-07T10:33:59.233Z,37.9
2018-05-07T10:34:49.045Z,38
2018-05-07T10:35:39.048Z,38.1
2018-05-07T10:36:28.675Z,38.1
2018-05-07T10:37:19.195Z,38.1
2018-05-07T10:38:09.277Z,38.3
2018-05-07T10:38:58.482Z,38.3
2018-05-07T10:39:49.396Z,38.3
2018-05-07T10:40:38.440Z,38.4
2018-05-07T10:41:28.961Z,38.6
2018-05-07T10:42:19.857Z,38.6
2018-05-07T10:43:08.239Z,38.7
2018-05-07T10:43:59.842Z,38.7
2018-05-07T10:44:50.071Z,38.7
2018-05-07T10:45:40.138Z,38.7
2018-05-07T10:46:30.224Z,38.7
2018-05-07T10:47:20.022Z,38.7
2018-05-07T10:48:10.062Z,38.6
2018-05-07T10:49:00.468Z,38.6
2018-05-07T10:49:50.238Z,38.6
2018-05-07T10:50:39.718Z,38.6
2018-05-07T10:51:30.078Z,38.6
2018-05-07T10:52:20.126Z,38.6
2018-05-07T10:53:10.767Z,38.6
2018-05-07T10:53:59.420Z,38.6
2018-05-07T10:54:50.310Z,38.6
2018-05-07T10:55:40.637Z,38.6
2018-05-07T10:56:30.781Z,38.6
2018-05-07T10:57:19.917Z,38.7
2018-05-07T10:58:11.192Z,38.8
2018-05-07T10:59:00.645Z,38.8
2018-05-07T10:59:51.000Z,38.8
2018-05-07T11:00:41.003Z,38.8
2018-05-07T11:01:30.297Z,38.9
2018-05-07T11:02:21.149Z,38.9
2018-05-07T11:03:10.667Z,38.9
2018-05-07T11:04:01.024Z,38.9
2018-05-07T11:04:51.099Z,39
2018-05-07T11:05:41.921Z,39
2018-05-07T11:06:31.771Z,39.1
2018-05-07T11:07:22.414Z,39.1
2018-05-07T11:08:11.641Z,39.1
2018-05-07T11:09:00.535Z,39.1
2018-05-07T11:09:51.485Z,39.1
2018-05-07T11:10:42.077Z,39.1
2018-05-07T11:11:31.883Z,39.1
2018-05-07T11:12:22.075Z,39.1
2018-05-07T11:13:11.719Z,39.1
2018-05-07T11:14:02.092Z,39.1
2018-05-07T11:14:52.213Z,39.1
2018-05-07T11:15:41.642Z,39.1
2018-05-07T11:16:32.089Z,39.1
2018-05-07T11:17:22.694Z,39.1
2018-05-07T11:18:12.490Z,39.1
2018-05-07T11:19:02.488Z,39.1
2018-05-07T11:19:53.641Z,39.1
2018-05-07T11:20:42.340Z,39.1
2018-05-07T11:21:32.658Z,39.1
2018-05-07T11:22:22.498Z,39.1
2018-05-07T11:23:13.095Z,39.1
2018-05-07T11:24:02.056Z,39.1
2018-05-07T11:24:52.447Z,39.1
2018-05-07T11:25:42.498Z,39.1
2018-05-07T11:26:32.571Z,39.1
2018-05-07T11:27:22.865Z,39.1
2018-05-07T11:28:12.672Z,39.1
2018-05-07T11:29:03.051Z,39.1
2018-05-07T11:29:53.092Z,39.1
2018-05-07T11:30:42.848Z,39.1
2018-05-07T11:31:33.790Z,39.1
2018-05-07T11:32:23.484Z,39.1
2018-05-07T11:33:13.547Z,39.1
2018-05-07T11:34:03.706Z,39.1
2018-05-07T11:34:54.056Z,39.1
2018-05-07T11:35:44.037Z,39.1
2018-05-07T11:36:33.825Z,39.1
2018-05-07T11:37:23.883Z,39.1
2018-05-07T11:38:13.957Z,39.1
2018-05-07T11:39:04.245Z,39.1
2018-05-07T11:39:54.107Z,39.2
2018-05-07T11:40:44.172Z,39.2
2018-05-07T11:41:33.674Z,39.3
2018-05-07T11:42:24.028Z,39.3
2018-05-07T11:43:14.082Z,39.3
2018-05-07T11:44:03.001Z,39.4
2018-05-07T11:44:53.444Z,39.4
2018-05-07T11:45:44.098Z,39.5
2018-05-07T11:46:34.345Z,39.5
2018-05-07T11:47:25.431Z,39.6
2018-05-07T11:48:15.012Z,39.6
2018-05-07T11:49:04.852Z,39.7
2018-05-07T11:49:54.610Z,39.7
2018-05-07T11:50:45.232Z,39.8
2018-05-07T11:51:35.290Z,39.8
2018-05-07T11:52:24.527Z,39.9
2018-05-07T11:53:16.539Z,39.9
2018-05-07T11:54:05.198Z,39.9
2018-05-07T11:54:55.259Z,39.9
2018-05-07T11:55:45.367Z,40
2018-05-07T11:56:34.914Z,40
2018-05-07T11:57:25.740Z,40
2018-05-07T11:58:15.249Z,40.1
2018-05-07T11:59:04.349Z,40.1
2018-05-07T11:59:55.380Z,40.1
2018-05-07T12:00:45.509Z,40.1
2018-05-07T12:01:35.821Z,40.2
2018-05-07T12:02:26.216Z,40.2
2018-05-07T12:03:15.443Z,40.3
2018-05-07T12:04:04.956Z,40.3
2018-05-07T12:04:55.489Z,40.3
2018-05-07T12:05:46.038Z,40.3
2018-05-07T12:06:36.211Z,40.4
2018-05-07T12:07:25.971Z,40.4
2018-05-07T12:08:15.751Z,40.5
2018-05-07T12:09:07.349Z,40.5
2018-05-07T12:09:56.194Z,40.6
2018-05-07T12:10:45.686Z,40.6
2018-05-07T12:11:36.630Z,40.6
2018-05-07T12:12:26.956Z,40.7
2018-05-07T12:13:15.578Z,40.8
2018-05-07T12:14:06.265Z,40.9
2018-05-07T12:14:56.539Z,40.9
2018-05-07T12:15:47.469Z,41
2018-05-07T12:16:37.302Z,41.1
2018-05-07T12:17:26.802Z,41.1
2018-05-07T12:18:17.377Z,41.2
2018-05-07T12:19:06.951Z,41.3
2018-05-07T12:19:57.214Z,41.2
2018-05-07T12:20:47.340Z,41.1
2018-05-07T12:21:37.616Z,41.1
2018-05-07T12:22:27.151Z,41.1
2018-05-07T12:23:18.338Z,41.1
2018-05-07T12:24:07.899Z,41.2
2018-05-07T12:24:57.287Z,41.2
2018-05-07T12:25:47.685Z,41.2
2018-05-07T12:26:37.188Z,41.3
2018-05-07T12:27:28.085Z,41.3
2018-05-07T12:28:17.930Z,41.3
2018-05-07T12:29:07.364Z,41.4
2018-05-07T12:29:58.014Z,41.5
2018-05-07T12:30:48.326Z,41.6
2018-05-07T12:31:39.788Z,41.8
2018-05-07T12:32:27.904Z,41.9
2018-05-07T12:33:17.695Z,42.3
2018-05-07T12:34:08.357Z,42.5
2018-05-07T12:34:57.826Z,42.7
2018-05-07T12:35:48.202Z,42.8
2018-05-07T12:36:38.834Z,42.9
2018-05-07T12:37:28.846Z,43
2018-05-07T12:38:18.378Z,43.1
2018-05-07T12:39:07.888Z,43.3
2018-05-07T12:39:59.098Z,43.3
2018-05-07T12:40:49.102Z,43.3
2018-05-07T12:41:39.175Z,43.3
2018-05-07T12:42:29.219Z,43.3
2018-05-07T12:43:18.487Z,43.3
2018-05-07T12:44:09.084Z,43.4
2018-05-07T12:44:58.631Z,43.4
2018-05-07T12:45:49.241Z,43.4
2018-05-07T12:46:39.228Z,43.4
2018-05-07T12:47:28.831Z,43.5
2018-05-07T12:48:19.709Z,43.6
2018-05-07T12:49:09.823Z,43.6
2018-05-07T12:49:59.648Z,43.6
2018-05-07T12:50:49.107Z,43.7
2018-05-07T12:51:39.712Z,43.7
2018-05-07T12:52:30.565Z,43.8
2018-05-07T12:53:19.302Z,43.8
2018-05-07T12:54:08.984Z,43.8
2018-05-07T12:54:59.507Z,43.8
2018-05-07T12:55:49.097Z,43.8
2018-05-07T12:56:40.110Z,43.7
2018-05-07T12:57:29.704Z,43.8
2018-05-07T12:58:20.026Z,43.8
2018-05-07T12:59:11.110Z,43.8
2018-05-07T12:59:59.565Z,43.8
2018-05-07T13:00:49.882Z,43.8
2018-05-07T13:01:40.533Z,43.9
2018-05-07T13:02:30.571Z,43.9
2018-05-07T13:03:20.654Z,43.9
2018-05-07T13:04:11.094Z,44.1
2018-05-07T13:05:00.472Z,44.2
2018-05-07T13:05:51.130Z,44.3
2018-05-07T13:06:40.876Z,44.4
2018-05-07T13:07:31.219Z,44.6
2018-05-07T13:08:20.467Z,44.8
2018-05-07T13:09:10.566Z,44.9
2018-05-07T13:10:01.187Z,45.1
2018-05-07T13:10:50.384Z,45.3
2018-05-07T13:11:41.745Z,45.4
2018-05-07T13:12:31.363Z,45.6
2018-05-07T13:13:20.888Z,45.7
2018-05-07T13:14:11.504Z,45.8
2018-05-07T13:15:01.544Z,45.8
2018-05-07T13:15:50.794Z,45.8
2018-05-07T13:16:41.377Z,45.8
2018-05-07T13:17:32.010Z,45.8
2018-05-07T13:18:22.012Z,45.9
2018-05-07T13:19:12.226Z,46
2018-05-07T13:20:02.213Z,46.1
2018-05-07T13:20:52.325Z,46.3
2018-05-07T13:21:42.346Z,46.3
2018-05-07T13:22:32.391Z,46.4
2018-05-07T13:23:22.469Z,46.4
2018-05-07T13:24:12.750Z,46.5
2018-05-07T13:25:02.500Z,46.6
2018-05-07T13:25:52.693Z,46.7
2018-05-07T13:26:42.471Z,46.8
2018-05-07T13:27:32.250Z,46.8
2018-05-07T13:28:21.768Z,46.8
2018-05-07T13:29:12.672Z,46.9
2018-05-07T13:30:02.429Z,47
2018-05-07T13:30:52.857Z,46.9
2018-05-07T13:31:42.879Z,46.8
2018-05-07T13:32:32.936Z,46.6
2018-05-07T13:33:23.094Z,46.5
2018-05-07T13:34:12.827Z,46.3
2018-05-07T13:35:03.169Z,45.9
2018-05-07T13:35:53.516Z,45.6
2018-05-07T13:36:43.474Z,45.6
2018-05-07T13:37:32.838Z,45.6
2018-05-07T13:38:23.137Z,45.6
2018-05-07T13:39:13.477Z,45.6
2018-05-07T13:40:03.520Z,45.6
2018-05-07T13:40:53.631Z,45.6
2018-05-07T13:41:43.966Z,45.6
2018-05-07T13:42:33.721Z,45.6
2018-05-07T13:43:23.512Z,45.8
2018-05-07T13:44:13.653Z,45.8
2018-05-07T13:45:04.202Z,45.9
2018-05-07T13:45:53.975Z,45.9
2018-05-07T13:46:44.311Z,46
2018-05-07T13:47:34.408Z,46
2018-05-07T13:48:24.489Z,46.1
2018-05-07T13:49:13.985Z,46.1
2018-05-07T13:50:04.308Z,46.2
2018-05-07T13:50:54.129Z,46.3
2018-05-07T13:51:44.722Z,46.3
2018-05-07T13:52:34.773Z,46.3
2018-05-07T13:53:24.915Z,46.4
2018-05-07T13:54:14.629Z,46.4
2018-05-07T13:55:04.741Z,46.4
2018-05-07T13:55:54.525Z,46.5
2018-05-07T13:56:45.283Z,46.6
2018-05-07T13:57:34.644Z,46.6
2018-05-07T13:58:25.271Z,46.6
2018-05-07T13:59:15.080Z,46.6
2018-05-07T14:00:05.379Z,46.7
2018-05-07T14:00:55.557Z,46.7
2018-05-07T14:01:45.288Z,46.8
2018-05-07T14:02:36.059Z,46.8
2018-05-07T14:03:25.100Z,46.8
2018-05-07T14:04:15.445Z,46.8
2018-05-07T14:05:05.789Z,46.8
2018-05-07T14:05:55.821Z,46.8
2018-05-07T14:06:45.357Z,46.8
2018-05-07T14:07:35.707Z,46.9
2018-05-07T14:08:26.499Z,46.9
2018-05-07T14:09:16.124Z,46.9
2018-05-07T14:10:05.671Z,46.9
2018-05-07T14:10:55.973Z,46.9
2018-05-07T14:11:46.044Z,46.9
2018-05-07T14:12:36.434Z,46.9
2018-05-07T14:13:25.921Z,46.8
2018-05-07T14:14:15.936Z,46.9
2018-05-07T14:15:06.321Z,46.9
2018-05-07T14:15:56.071Z,46.9
2018-05-07T14:16:47.876Z,46.9
2018-05-07T14:17:36.507Z,46.8
2018-05-07T14:18:26.843Z,46.8
2018-05-07T14:19:15.838Z,46.8
2018-05-07T14:20:06.732Z,46.8
2018-05-07T14:20:57.044Z,46.8
2018-05-07T14:21:47.121Z,46.8
2018-05-07T14:22:36.081Z,46.8
2018-05-07T14:23:27.252Z,46.8
2018-05-07T14:24:17.328Z,46.8
2018-05-07T14:25:06.878Z,46.8
2018-05-07T14:25:56.931Z,46.8
2018-05-07T14:26:47.483Z,46.8
2018-05-07T14:27:37.585Z,46.8
2018-05-07T14:28:27.380Z,46.8
2018-05-07T14:29:17.163Z,46.8
2018-05-07T14:30:07.228Z,46.7
2018-05-07T14:30:56.735Z,46.7
2018-05-07T14:31:47.385Z,46.6
2018-05-07T14:32:37.430Z,46.6
2018-05-07T14:33:27.607Z,46.6
2018-05-07T14:34:17.339Z,46.6
2018-05-07T14:35:08.173Z,46.5
2018-05-07T14:35:57.975Z,46.5
2018-05-07T14:36:47.745Z,46.5
2018-05-07T14:37:38.079Z,46.4
2018-05-07T14:38:28.419Z,46.4
2018-05-07T14:39:18.214Z,46.3
2018-05-07T14:40:08.581Z,46.3
2018-05-07T14:40:58.673Z,46.2
2018-05-07T14:41:45.922Z,46.2
2018-05-07T14:42:36.833Z,46.1
2018-05-07T14:43:26.357Z,46.1
2018-05-07T14:44:16.991Z,46
2018-05-07T14:45:06.749Z,45.9
2018-05-07T14:45:56.831Z,45.9
2018-05-07T14:46:46.602Z,45.9
2018-05-07T14:47:36.943Z,45.8
2018-05-07T14:48:27.283Z,45.8
2018-05-07T14:49:17.360Z,45.8
2018-05-07T14:50:07.209Z,45.8
2018-05-07T14:50:57.505Z,45.8
2018-05-07T14:51:47.009Z,45.8
2018-05-07T14:52:37.351Z,45.8
2018-05-07T14:53:26.883Z,45.8
2018-05-07T14:54:17.473Z,45.7
2018-05-07T14:55:07.853Z,45.8
2018-05-07T14:55:58.408Z,45.8
2018-05-07T14:56:48.020Z,45.8
2018-05-07T14:57:38.021Z,45.7
2018-05-07T14:58:27.537Z,45.8
2018-05-07T14:59:17.854Z,45.7
2018-05-07T15:00:08.218Z,45.5
2018-05-07T15:00:58.280Z,44.9
2018-05-07T15:01:47.774Z,44.4
2018-05-07T15:02:38.108Z,43.9
2018-05-07T15:03:28.463Z,43.6
2018-05-07T15:04:18.547Z,43.4
2018-05-07T15:05:08.632Z,43.3
2018-05-07T15:05:58.692Z,43.2
2018-05-07T15:06:48.468Z,42.9
2018-05-07T15:07:38.825Z,42.6
2018-05-07T15:08:28.863Z,42.3
2018-05-07T15:09:18.668Z,42.1
2018-05-07T15:10:08.190Z,42
2018-05-07T15:11:01.014Z,41.8
2018-05-07T15:11:50.504Z,41.7
2018-05-07T15:12:41.166Z,41.6
2018-05-07T15:13:30.633Z,41.3
2018-05-07T15:14:20.691Z,40.8
2018-05-07T15:15:11.039Z,40.1
2018-05-07T15:16:01.125Z,39.5
2018-05-07T15:16:51.465Z,38.9
2018-05-07T15:17:41.274Z,38.4
2018-05-07T15:18:31.602Z,37.6
2018-05-07T15:19:20.865Z,36.8
2018-05-07T15:20:11.456Z,36.1
2018-05-07T15:21:00.979Z,35.3
2018-05-07T15:21:51.584Z,34.6
2018-05-07T15:22:41.649Z,34.2
2018-05-07T15:23:32.483Z,34
2018-05-07T15:24:21.491Z,33.8
2018-05-07T15:25:11.585Z,33.3
2018-05-07T15:26:02.189Z,32.8
2018-05-07T15:26:50.958Z,32.4
2018-05-07T15:27:41.576Z,32.3
2018-05-07T15:28:31.674Z,32.3
2018-05-07T15:29:22.632Z,32.2
2018-05-07T15:30:12.249Z,32.2
2018-05-07T15:31:02.297Z,32.1
2018-05-07T15:31:52.691Z,32.1
2018-05-07T15:32:42.480Z,32.1
2018-05-07T15:33:31.947Z,32.1
2018-05-07T15:34:22.865Z,32.1
2018-05-07T15:35:12.934Z,32.1
2018-05-07T15:36:02.708Z,32.1
2018-05-07T15:36:52.821Z,32.1
2018-05-07T15:37:43.099Z,32.2
2018-05-07T15:38:32.611Z,32.1
2018-05-07T15:39:23.027Z,32.2
2018-05-07T15:40:13.071Z,32.2
2018-05-07T15:41:03.188Z,32.3
2018-05-07T15:41:53.173Z,32.3
2018-05-07T15:42:41.261Z,32.3
2018-05-07T15:43:33.363Z,32.3
2018-05-07T15:44:22.536Z,32.3
2018-05-07T15:45:13.732Z,32.3
2018-05-07T15:46:03.533Z,32.4
2018-05-07T15:46:53.858Z,32.4
2018-05-07T15:47:43.658Z,32.4
2018-05-07T15:48:34.028Z,32.4
2018-05-07T15:49:24.842Z,32.4
2018-05-07T15:50:13.554Z,32.4
2018-05-07T15:51:03.606Z,32.4
2018-05-07T15:51:53.720Z,32.4
2018-05-07T15:52:44.302Z,32.4
2018-05-07T15:53:34.054Z,32.4
2018-05-07T15:54:24.191Z,32.4
2018-05-07T15:55:14.211Z,32.4
2018-05-07T15:56:04.763Z,32.5
2018-05-07T15:56:54.659Z,32.5
2018-05-07T15:57:44.146Z,32.5
2018-05-07T15:58:34.534Z,32.5
2018-05-07T15:59:24.590Z,32.5
2018-05-07T16:00:13.785Z,32.5
2018-05-07T16:01:04.695Z,32.5
2018-05-07T16:01:55.024Z,32.6
2018-05-07T16:02:45.463Z,32.6
2018-05-07T16:03:34.587Z,32.6
2018-05-07T16:04:24.939Z,32.6
2018-05-07T16:05:14.734Z,32.6
2018-05-07T16:06:04.831Z,32.6
2018-05-07T16:06:55.442Z,32.6
2018-05-07T16:07:44.394Z,32.6
2018-05-07T16:08:35.630Z,32.6
2018-05-07T16:09:25.122Z,32.6
2018-05-07T16:10:15.388Z,32.6
2018-05-07T16:11:05.769Z,32.6
2018-05-07T16:11:55.921Z,32.6
2018-05-07T16:12:45.657Z,32.6
2018-05-07T16:13:35.935Z,32.6
2018-05-07T16:14:25.163Z,32.6
2018-05-07T16:15:16.907Z,32.6
2018-05-07T16:16:05.870Z,32.6
2018-05-07T16:16:56.299Z,32.5
2018-05-07T16:17:46.238Z,32.5
2018-05-07T16:18:36.680Z,32.5
2018-05-07T16:19:26.126Z,32.4
2018-05-07T16:20:15.913Z,32.4
2018-05-07T16:21:06.292Z,32.4
2018-05-07T16:21:57.546Z,32.4
2018-05-07T16:22:46.686Z,32.4
2018-05-07T16:23:38.497Z,32.3
2018-05-07T16:24:26.515Z,32.3
2018-05-07T16:25:16.331Z,32.3
2018-05-07T16:26:06.935Z,32.3
2018-05-07T16:26:56.740Z,32.2
2018-05-07T16:27:47.095Z,32.2
2018-05-07T16:28:37.096Z,32.2
2018-05-07T16:29:26.923Z,32.1